createdAt,value
2018-09-22T00:00:44.842Z,0.00
2018-09-22T00:02:16.415Z,0.00
2018-09-22T00:03:47.989Z,0.00
2018-09-22T00:05:19.564Z,0.00
2018-09-22T00:06:51.135Z,0.00
2018-09-22T00:08:22.707Z,0.00
2018-09-22T00:09:54.280Z,0.00
2018-09-22T00:11:26.255Z,0.00
2018-09-22T00:14:28.998Z,0.00
2018-09-22T00:16:00.572Z,0.00
2018-09-22T00:17:32.145Z,0.00
2018-09-22T00:19:03.718Z,0.00
2018-09-22T00:20:35.291Z,0.00
2018-09-22T00:22:06.864Z,0.00
2018-09-22T00:23:38.437Z,0.00
2018-09-22T00:25:10.011Z,0.00
2018-09-22T00:26:41.583Z,0.00
2018-09-22T00:28:13.157Z,0.00
2018-09-22T00:31:16.502Z,0.00
2018-09-22T00:32:47.873Z,0.00
2018-09-22T00:34:19.447Z,0.00
2018-09-22T00:35:51.019Z,0.00
2018-09-22T00:37:22.644Z,0.00
2018-09-22T00:38:54.167Z,0.00
2018-09-22T00:40:25.741Z,0.00
2018-09-22T00:41:57.313Z,0.00
2018-09-22T00:43:28.885Z,0.00
2018-09-22T00:45:00.460Z,0.00
2018-09-22T00:46:32.036Z,0.00
2018-09-22T00:48:03.604Z,0.00
2018-09-22T00:49:35.278Z,0.00
2018-09-22T00:51:06.752Z,0.00
2018-09-22T00:52:38.326Z,0.00
2018-09-22T00:54:09.897Z,0.00
2018-09-22T00:55:41.474Z,0.00
2018-09-22T00:57:13.043Z,0.00
2018-09-22T00:58:44.617Z,0.00
2018-09-22T01:00:16.189Z,0.00
2018-09-22T01:03:19.435Z,0.00
2018-09-22T01:04:51.431Z,0.00
2018-09-22T01:06:22.483Z,0.00
2018-09-22T01:07:54.055Z,0.00
2018-09-22T01:09:25.728Z,0.00
2018-09-22T01:10:57.403Z,0.00
2018-09-22T01:12:28.773Z,0.00
2018-09-22T01:14:00.353Z,0.00
2018-09-22T01:15:31.945Z,0.00
2018-09-22T01:17:03.491Z,0.00
2018-09-22T01:18:35.069Z,0.00
2018-09-22T01:20:06.636Z,0.00
2018-09-22T01:21:38.210Z,0.00
2018-09-22T01:23:09.782Z,0.00
2018-09-22T01:24:41.354Z,0.00
2018-09-22T01:26:12.926Z,0.00
2018-09-22T01:27:44.599Z,0.00
2018-09-22T01:29:16.076Z,0.00
2018-09-22T01:30:47.643Z,0.00
2018-09-22T01:32:19.228Z,0.00
2018-09-22T01:33:50.888Z,0.00
2018-09-22T01:35:22.360Z,0.00
2018-09-22T01:36:54.454Z,0.00
2018-09-22T01:38:25.506Z,0.00
2018-09-22T01:39:57.081Z,0.00
2018-09-22T01:41:28.649Z,0.00
2018-09-22T01:43:00.221Z,0.00
2018-09-22T01:44:31.794Z,0.00
2018-09-22T01:46:03.465Z,0.00
2018-09-22T01:47:34.939Z,0.00
2018-09-22T01:49:06.510Z,0.00
2018-09-22T01:50:38.083Z,0.00
2018-09-22T01:52:09.653Z,0.00
2018-09-22T01:53:41.746Z,0.00
2018-09-22T01:55:12.797Z,0.00
2018-09-22T01:56:44.368Z,0.00
2018-09-22T01:58:15.941Z,0.00
2018-09-22T01:59:47.513Z,0.00
2018-09-22T02:01:19.084Z,0.00
2018-09-22T02:04:22.427Z,0.00
2018-09-22T02:05:53.798Z,0.00
2018-09-22T02:07:25.370Z,0.00
2018-09-22T02:08:57.250Z,0.00
2018-09-22T02:10:28.553Z,0.00
2018-09-22T02:12:00.085Z,0.00
2018-09-22T02:13:31.659Z,0.00
2018-09-22T02:15:03.229Z,0.00
2018-09-22T02:16:35.100Z,0.00
2018-09-22T02:18:06.370Z,0.00
2018-09-22T02:19:37.944Z,0.00
2018-09-22T02:21:09.513Z,0.00
2018-09-22T02:22:41.185Z,0.00
2018-09-22T02:24:12.656Z,0.00
2018-09-22T02:25:44.241Z,0.00
2018-09-22T02:27:15.799Z,0.00
2018-09-22T02:28:47.371Z,0.00
2018-09-22T02:30:18.942Z,0.00
2018-09-22T02:31:50.513Z,0.00
2018-09-22T02:33:22.084Z,0.00
2018-09-22T02:36:25.327Z,0.00
2018-09-22T02:37:56.797Z,0.00
2018-09-22T02:39:28.370Z,0.00
2018-09-22T02:40:59.939Z,0.00
2018-09-22T02:42:31.611Z,0.00
2018-09-22T02:44:03.088Z,0.00
2018-09-22T02:45:34.657Z,0.00
2018-09-22T02:47:06.224Z,0.00
2018-09-22T02:48:38.097Z,0.00
2018-09-22T02:50:09.367Z,0.00
2018-09-22T02:51:40.937Z,0.00
2018-09-22T02:53:12.510Z,0.00
2018-09-22T02:54:44.082Z,0.00
2018-09-22T02:56:15.650Z,0.00
2018-09-22T02:57:47.224Z,0.00
2018-09-22T02:59:18.793Z,0.00
2018-09-22T03:00:50.464Z,0.00
2018-09-22T03:02:21.934Z,0.00
2018-09-22T03:03:53.506Z,0.00
2018-09-22T03:05:25.076Z,0.00
2018-09-22T03:06:56.748Z,0.00
2018-09-22T03:08:28.218Z,0.00
2018-09-22T03:09:59.794Z,0.00
2018-09-22T03:11:31.361Z,0.00
2018-09-22T03:13:02.930Z,0.00
2018-09-22T03:14:34.501Z,0.00
2018-09-22T03:16:06.071Z,0.00
2018-09-22T03:17:37.655Z,0.00
2018-09-22T03:19:09.313Z,0.00
2018-09-22T03:20:40.785Z,0.00
2018-09-22T03:22:12.356Z,0.00
2018-09-22T03:23:44.229Z,0.00
2018-09-22T03:25:15.500Z,0.00
2018-09-22T03:26:47.067Z,0.00
2018-09-22T03:28:18.639Z,0.00
2018-09-22T03:29:50.210Z,0.00
2018-09-22T03:31:21.780Z,0.00
2018-09-22T03:34:24.922Z,0.00
2018-09-22T03:35:56.492Z,0.00
2018-09-22T03:37:28.264Z,0.00
2018-09-22T03:38:59.638Z,0.00
2018-09-22T03:40:31.204Z,0.00
2018-09-22T03:42:02.775Z,0.00
2018-09-22T03:43:34.346Z,0.00
2018-09-22T03:45:05.917Z,0.00
2018-09-22T03:46:37.490Z,0.00
2018-09-22T03:48:09.060Z,0.00
2018-09-22T03:49:40.834Z,0.00
2018-09-22T03:51:12.200Z,0.00
2018-09-22T03:52:43.772Z,0.00
2018-09-22T03:54:15.341Z,0.00
2018-09-22T03:55:47.011Z,0.00
2018-09-22T03:57:18.482Z,0.00
2018-09-22T03:58:50.073Z,0.00
2018-09-22T04:00:21.625Z,0.00
2018-09-22T04:01:53.193Z,0.00
2018-09-22T04:03:24.768Z,0.00
2018-09-22T04:06:27.905Z,0.00
2018-09-22T04:07:59.577Z,0.00
2018-09-22T04:09:31.047Z,0.00
2018-09-22T04:11:02.617Z,0.00
2018-09-22T04:12:34.188Z,0.00
2018-09-22T04:14:05.859Z,0.00
2018-09-22T04:15:37.329Z,0.00
2018-09-22T04:17:08.900Z,0.00
2018-09-22T04:18:40.478Z,0.00
2018-09-22T04:20:12.042Z,0.00
2018-09-22T04:21:43.611Z,0.00
2018-09-22T04:23:15.181Z,0.00
2018-09-22T04:24:46.752Z,0.00
2018-09-22T04:26:18.322Z,0.00
2018-09-22T04:27:49.893Z,0.00
2018-09-22T04:29:21.464Z,0.00
2018-09-22T04:30:53.035Z,0.00
2018-09-22T04:32:24.705Z,0.00
2018-09-22T04:33:56.174Z,0.00
2018-09-22T04:35:27.745Z,0.00
2018-09-22T04:36:59.316Z,0.00
2018-09-22T04:38:30.887Z,0.00
2018-09-22T04:40:02.458Z,0.00
2018-09-22T04:41:34.032Z,0.00
2018-09-22T04:43:05.598Z,0.00
2018-09-22T04:44:37.168Z,0.00
2018-09-22T04:46:08.739Z,0.00
2018-09-22T04:47:40.310Z,0.00
2018-09-22T04:49:11.879Z,0.00
2018-09-22T04:50:43.851Z,0.00
2018-09-22T04:52:15.053Z,0.00
2018-09-22T04:53:46.591Z,0.00
2018-09-22T04:55:18.160Z,0.00
2018-09-22T04:56:49.731Z,0.00
2018-09-22T04:58:21.303Z,0.00
2018-09-22T04:59:52.875Z,0.00
2018-09-22T05:01:24.442Z,0.00
2018-09-22T05:02:56.013Z,0.00
2018-09-22T05:04:27.584Z,0.00
2018-09-22T05:05:59.154Z,0.00
2018-09-22T05:07:30.724Z,0.00
2018-09-22T05:09:02.396Z,0.00
2018-09-22T05:10:33.864Z,0.00
2018-09-22T05:12:05.436Z,0.00
2018-09-22T05:13:37.004Z,0.00
2018-09-22T05:15:08.575Z,0.00
2018-09-22T05:16:40.148Z,0.00
2018-09-22T05:18:11.715Z,0.00
2018-09-22T05:19:43.287Z,0.00
2018-09-22T05:21:14.856Z,0.00
2018-09-22T05:22:46.427Z,0.00
2018-09-22T05:24:17.996Z,0.00
2018-09-22T05:25:49.566Z,0.00
2018-09-22T05:27:21.236Z,0.00
2018-09-22T05:28:52.706Z,0.00
2018-09-22T05:30:24.277Z,0.00
2018-09-22T05:31:55.846Z,0.00
2018-09-22T05:33:27.503Z,0.00
2018-09-22T05:34:58.987Z,0.00
2018-09-22T05:36:30.556Z,0.00
2018-09-22T05:38:02.127Z,0.00
2018-09-22T05:39:33.797Z,0.00
2018-09-22T05:41:05.267Z,0.00
2018-09-22T05:42:36.843Z,0.00
2018-09-22T05:44:08.406Z,0.00
2018-09-22T05:45:40.730Z,0.00
2018-09-22T05:47:11.548Z,0.00
2018-09-22T05:48:43.118Z,0.00
2018-09-22T05:50:14.688Z,0.00
2018-09-22T05:51:46.558Z,0.00
2018-09-22T05:53:17.829Z,0.00
2018-09-22T05:54:49.399Z,0.00
2018-09-22T05:56:20.967Z,0.00
2018-09-22T05:57:52.538Z,0.00
2018-09-22T05:59:24.109Z,0.00
2018-09-22T06:00:55.678Z,0.00
2018-09-22T06:02:27.247Z,0.00
2018-09-22T06:03:59.064Z,0.00
2018-09-22T06:05:30.389Z,0.00
2018-09-22T06:07:01.957Z,0.00
2018-09-22T06:08:33.528Z,0.00
2018-09-22T06:10:05.402Z,0.00
2018-09-22T06:11:36.667Z,0.00
2018-09-22T06:13:08.238Z,0.00
2018-09-22T06:14:39.811Z,0.00
2018-09-22T06:16:11.482Z,0.00
2018-09-22T06:17:43.454Z,0.00
2018-09-22T06:19:14.517Z,0.00
2018-09-22T06:20:46.086Z,0.00
2018-09-22T06:22:17.757Z,0.00
2018-09-22T06:23:49.227Z,0.00
2018-09-22T06:25:20.798Z,0.00
2018-09-22T06:26:52.671Z,0.00
2018-09-22T06:28:23.938Z,0.00
2018-09-22T06:29:55.507Z,0.00
2018-09-22T06:31:27.078Z,0.00
2018-09-22T06:32:58.647Z,0.00
2018-09-22T06:34:30.218Z,0.00
2018-09-22T06:36:01.788Z,0.00
2018-09-22T06:37:33.398Z,0.00
2018-09-22T06:39:04.929Z,0.00
2018-09-22T06:40:36.698Z,0.00
2018-09-22T06:42:08.069Z,0.00
2018-09-22T06:43:39.656Z,0.00
2018-09-22T06:45:11.209Z,0.00
2018-09-22T06:46:42.780Z,0.00
2018-09-22T06:48:14.349Z,0.00
2018-09-22T06:49:45.921Z,0.00
2018-09-22T06:51:17.494Z,0.00
2018-09-22T06:52:49.362Z,0.00
2018-09-22T06:54:20.633Z,0.00
2018-09-22T06:55:52.203Z,0.00
2018-09-22T06:57:23.773Z,0.00
2018-09-22T06:58:55.443Z,0.00
2018-09-22T07:00:26.913Z,0.00
2018-09-22T07:01:58.484Z,0.00
2018-09-22T07:03:30.055Z,0.00
2018-09-22T07:05:01.628Z,0.00
2018-09-22T07:06:33.232Z,0.00
2018-09-22T07:08:04.765Z,0.00
2018-09-22T07:09:36.336Z,0.00
2018-09-22T07:11:08.006Z,0.00
2018-09-22T07:12:39.476Z,0.00
2018-09-22T07:14:11.046Z,0.00
2018-09-22T07:15:43.138Z,0.00
2018-09-22T07:17:14.288Z,0.00
2018-09-22T07:18:45.758Z,0.00
2018-09-22T07:20:17.326Z,0.00
2018-09-22T07:21:48.899Z,0.00
2018-09-22T07:23:20.770Z,0.00
2018-09-22T07:24:52.038Z,0.00
2018-09-22T07:26:23.607Z,0.00
2018-09-22T07:27:55.178Z,0.00
2018-09-22T07:29:26.749Z,0.00
2018-09-22T07:30:58.387Z,0.00
2018-09-22T07:32:29.888Z,0.00
2018-09-22T07:34:01.462Z,0.00
2018-09-22T07:35:33.130Z,0.00
2018-09-22T07:37:04.599Z,0.00
2018-09-22T07:38:36.170Z,0.00
2018-09-22T07:40:07.739Z,0.00
2018-09-22T07:41:39.610Z,0.00
2018-09-22T07:43:10.880Z,0.00
2018-09-22T07:44:42.466Z,0.00
2018-09-22T07:46:14.021Z,0.00
2018-09-22T07:49:17.261Z,0.00
2018-09-22T07:50:48.730Z,0.00
2018-09-22T07:52:20.301Z,0.00
2018-09-22T07:53:51.872Z,0.00
2018-09-22T07:55:23.841Z,0.00
2018-09-22T07:58:26.581Z,0.00
2018-09-22T07:59:58.151Z,0.00
2018-09-22T08:01:29.721Z,0.00
2018-09-22T08:03:01.291Z,0.00
2018-09-22T08:06:04.431Z,0.00
2018-09-22T08:07:36.003Z,0.00
2018-09-22T08:09:07.571Z,0.00
2018-09-22T08:10:39.143Z,0.00
2018-09-22T08:12:10.711Z,0.00
2018-09-22T08:13:42.482Z,0.00
2018-09-22T08:15:13.853Z,0.00
2018-09-22T08:16:45.421Z,0.00
2018-09-22T08:18:16.990Z,0.00
2018-09-22T08:19:48.861Z,0.00
2018-09-22T08:21:20.130Z,0.00
2018-09-22T08:22:52.223Z,0.00
2018-09-22T08:24:23.270Z,0.00
2018-09-22T08:25:55.141Z,0.00
2018-09-22T08:27:26.413Z,0.00
2018-09-22T08:28:57.981Z,0.00
2018-09-22T08:30:29.550Z,0.00
2018-09-22T08:32:01.274Z,0.00
2018-09-22T08:33:32.690Z,0.00
2018-09-22T08:35:04.260Z,0.00
2018-09-22T08:36:36.134Z,0.00
2018-09-22T08:38:07.399Z,0.00
2018-09-22T08:39:38.969Z,0.00
2018-09-22T08:41:10.538Z,0.00
2018-09-22T08:42:42.108Z,0.00
2018-09-22T08:44:13.779Z,0.00
2018-09-22T08:45:45.451Z,0.00
2018-09-22T08:47:16.822Z,5.63
2018-09-22T08:48:48.389Z,5.63
2018-09-22T08:50:20.058Z,5.63
2018-09-22T08:51:51.832Z,11.25
2018-09-22T08:53:23.104Z,11.25
2018-09-22T08:54:54.667Z,16.88
2018-09-22T08:56:26.588Z,22.50
2018-09-22T08:57:57.823Z,28.13
2018-09-22T08:59:29.380Z,33.75
2018-09-22T09:01:00.949Z,39.38
2018-09-22T09:02:32.517Z,50.63
2018-09-22T09:04:04.088Z,56.25
2018-09-22T09:05:35.660Z,67.50
2018-09-22T09:07:07.227Z,73.13
2018-09-22T09:08:38.898Z,78.75
2018-09-22T09:10:10.367Z,90.00
2018-09-22T09:13:13.530Z,106.88
2018-09-22T09:14:45.429Z,118.13
2018-09-22T09:16:16.850Z,129.38
2018-09-22T09:17:48.219Z,135.00
2018-09-22T09:19:19.790Z,146.25
2018-09-22T09:20:51.662Z,151.88
2018-09-22T09:22:22.930Z,163.13
2018-09-22T09:25:26.077Z,191.25
2018-09-22T09:26:57.847Z,202.50
2018-09-22T09:28:29.518Z,213.75
2018-09-22T09:30:00.785Z,219.38
2018-09-22T09:31:32.568Z,230.63
2018-09-22T09:34:35.501Z,247.50
2018-09-22T09:36:07.073Z,258.75
2018-09-22T09:39:10.423Z,281.25
2018-09-22T09:40:42.313Z,286.88
2018-09-22T09:42:13.565Z,298.13
2018-09-22T09:43:45.009Z,309.38
2018-09-22T09:46:49.005Z,326.25
2018-09-22T09:48:19.657Z,331.88
2018-09-22T09:49:51.234Z,348.75
2018-09-22T09:51:22.804Z,354.38
2018-09-22T09:52:54.379Z,365.63
2018-09-22T09:54:26.547Z,348.75
2018-09-22T09:55:57.528Z,382.50
2018-09-22T09:57:29.257Z,393.75
2018-09-22T09:59:01.182Z,393.75
2018-09-22T10:02:04.354Z,410.63
2018-09-22T10:03:35.407Z,421.88
2018-09-22T10:08:10.437Z,444.38
2018-09-22T10:09:41.914Z,455.63
2018-09-22T10:11:13.491Z,478.13
2018-09-22T10:12:44.865Z,489.38
2018-09-22T10:14:16.443Z,495.00
2018-09-22T10:15:48.324Z,500.63
2018-09-22T10:17:19.596Z,506.25
2018-09-22T10:18:51.175Z,517.50
2018-09-22T10:20:23.054Z,511.88
2018-09-22T10:21:54.632Z,511.88
2018-09-22T10:23:25.960Z,523.13
2018-09-22T10:24:57.484Z,540.00
2018-09-22T10:28:01.662Z,562.50
2018-09-22T10:31:04.316Z,579.38
2018-09-22T10:34:06.948Z,590.63
2018-09-22T10:37:10.103Z,596.25
2018-09-22T10:38:42.206Z,601.88
2018-09-22T10:40:13.260Z,624.38
2018-09-22T10:41:45.041Z,641.25
2018-09-22T10:43:16.621Z,663.75
2018-09-22T10:44:48.515Z,675.00
2018-09-22T10:46:19.672Z,697.50
2018-09-22T10:47:51.151Z,708.75
2018-09-22T10:49:22.729Z,731.25
2018-09-22T10:50:54.830Z,736.88
2018-09-22T10:52:25.891Z,748.13
2018-09-22T10:53:57.467Z,770.63
2018-09-22T11:00:04.084Z,877.50
2018-09-22T11:01:35.362Z,939.38
2018-09-22T11:03:07.246Z,928.13
2018-09-22T11:06:10.202Z,1051.88
2018-09-22T11:07:41.683Z,1068.75
2018-09-22T11:10:45.051Z,1231.88
2018-09-22T11:12:17.150Z,1456.88
2018-09-22T11:15:20.105Z,1018.13
2018-09-22T11:16:51.467Z,1119.38
2018-09-22T11:18:22.744Z,905.63
2018-09-22T11:19:54.325Z,871.88
2018-09-22T11:21:26.107Z,860.63
2018-09-22T11:22:57.687Z,849.38
2018-09-22T11:24:29.268Z,933.75
2018-09-22T11:30:35.691Z,1631.25
2018-09-22T11:32:07.494Z,1693.13
2018-09-22T11:33:38.552Z,1822.50
2018-09-22T11:35:10.342Z,1895.63
2018-09-22T11:36:41.717Z,1901.25
2018-09-22T11:38:13.354Z,1828.13
2018-09-22T11:39:44.879Z,1906.88
2018-09-22T11:41:16.464Z,1861.88
2018-09-22T11:42:48.153Z,1923.75
2018-09-22T11:44:19.623Z,1991.25
2018-09-22T11:45:51.205Z,1951.88
2018-09-22T11:47:22.788Z,2030.63
2018-09-22T11:48:54.569Z,1991.25
2018-09-22T11:51:57.531Z,2058.75
2018-09-22T11:55:01.216Z,2250.00
2018-09-22T11:56:32.861Z,2311.88
2018-09-22T11:58:03.858Z,2154.38
2018-09-22T11:59:35.743Z,2328.75
2018-09-22T12:01:07.423Z,2221.88
2018-09-22T12:02:38.605Z,2109.38
2018-09-22T12:04:10.389Z,2340.00
2018-09-22T12:05:42.073Z,2345.63
2018-09-22T12:07:13.553Z,2396.25
2018-09-22T12:10:17.122Z,2407.50
2018-09-22T12:11:48.611Z,2559.38
2018-09-22T12:13:19.680Z,2536.88
2018-09-22T12:16:22.846Z,2272.50
2018-09-22T12:19:26.318Z,2587.50
2018-09-22T12:22:29.180Z,2508.75
2018-09-22T12:25:32.344Z,2469.38
2018-09-22T12:28:35.511Z,2514.38
2018-09-22T12:30:07.094Z,2581.88
2018-09-22T12:31:38.979Z,2598.75
2018-09-22T12:39:16.898Z,2818.13
2018-09-22T12:40:48.381Z,2649.38
2018-09-22T12:42:19.762Z,2677.50
2018-09-22T12:43:51.346Z,2756.25
2018-09-22T12:45:22.929Z,2593.13
2018-09-22T12:46:55.424Z,2705.63
2018-09-22T12:48:26.098Z,2778.75
2018-09-22T12:49:58.210Z,2874.38
2018-09-22T12:51:29.565Z,2683.13
2018-09-22T12:53:00.851Z,2722.50
2018-09-22T12:54:32.955Z,2767.50
2018-09-22T12:56:04.623Z,2773.13
2018-09-22T12:57:35.705Z,2835.00
2018-09-22T12:59:07.185Z,2908.13
2018-09-22T13:00:39.291Z,2835.00
2018-09-22T13:02:10.875Z,2593.13
2018-09-22T13:03:42.293Z,2716.88
2018-09-22T13:05:14.122Z,2885.63
2018-09-22T13:06:45.865Z,3003.75
2018-09-22T13:08:16.691Z,3093.75
2018-09-22T13:09:48.275Z,3031.88
2018-09-22T13:11:20.060Z,3009.38
2018-09-22T13:14:23.026Z,2812.50
2018-09-22T13:15:55.014Z,2930.63
2018-09-22T13:17:26.203Z,3166.88
2018-09-22T13:18:58.083Z,3195.00
2018-09-22T13:20:29.365Z,3335.63
2018-09-22T13:22:00.948Z,3408.75
2018-09-22T13:23:33.379Z,3470.63
2018-09-22T13:25:04.117Z,3408.75
2018-09-22T13:26:35.702Z,3318.75
2018-09-22T13:28:07.294Z,3420.00
2018-09-22T13:29:39.073Z,3369.38
2018-09-22T13:31:10.454Z,3352.50
2018-09-22T13:34:14.247Z,3543.75
2018-09-22T13:37:16.867Z,3369.38
2018-09-22T13:38:48.683Z,3330.00
2018-09-22T13:40:20.168Z,3481.88
2018-09-22T13:41:52.010Z,3414.38
2018-09-22T13:44:55.443Z,3487.50
2018-09-22T13:46:26.616Z,3470.63
2018-09-22T13:47:58.092Z,3442.50
2018-09-22T13:49:29.474Z,3560.63
2018-09-22T13:51:01.062Z,3526.88
2018-09-22T13:52:32.745Z,3324.38
2018-09-22T13:55:36.120Z,3690.00
2018-09-22T13:57:07.754Z,3735.00
2018-09-22T14:00:11.991Z,3369.38
2018-09-22T14:01:42.462Z,3532.50
2018-09-22T14:03:13.744Z,3588.75
2018-09-22T14:04:45.351Z,3976.88
2018-09-22T14:09:20.088Z,3909.38
2018-09-22T14:12:23.881Z,3746.25
2018-09-22T14:13:54.845Z,3836.25
2018-09-22T14:15:26.430Z,3948.75
2018-09-22T14:16:58.219Z,3712.50
2018-09-22T14:18:29.638Z,3813.75
2018-09-22T14:20:01.193Z,3999.38
2018-09-22T14:21:32.780Z,3937.50
2018-09-22T14:26:07.632Z,4106.25
2018-09-22T14:27:39.118Z,4213.13
2018-09-22T14:29:10.704Z,4235.63
2018-09-22T14:32:14.154Z,4050.00
2018-09-22T14:33:45.462Z,3988.13
2018-09-22T14:35:17.049Z,4038.75
2018-09-22T14:36:48.635Z,4061.25
2018-09-22T14:38:20.524Z,4055.63
2018-09-22T14:39:51.808Z,3813.75
2018-09-22T14:41:23.595Z,3853.13
2018-09-22T14:42:55.906Z,3369.38
2018-09-22T14:44:27.088Z,2626.88
2018-09-22T14:45:58.152Z,4117.50
2018-09-22T14:47:30.051Z,4173.75
2018-09-22T14:49:01.326Z,4291.88
2018-09-22T14:50:33.016Z,4095.00
2018-09-22T14:52:04.504Z,3909.38
2018-09-22T14:53:36.090Z,3988.13
2018-09-22T14:55:07.676Z,3982.50
2018-09-22T14:56:39.264Z,4033.13
2018-09-22T14:58:11.371Z,4016.25
2018-09-22T14:59:42.438Z,3931.88
2018-09-22T15:01:14.026Z,4168.13
2018-09-22T15:02:45.610Z,4016.25
2018-09-22T15:04:17.503Z,3982.50
2018-09-22T15:07:20.375Z,3993.75
2018-09-22T15:08:52.264Z,3948.75
2018-09-22T15:10:24.075Z,3060.00
2018-09-22T15:13:26.725Z,4050.00
2018-09-22T15:14:58.517Z,4038.75
2018-09-22T15:18:01.489Z,3943.13
2018-09-22T15:19:33.075Z,3976.88
2018-09-22T15:21:04.695Z,4021.88
2018-09-22T15:22:36.250Z,4213.13
2018-09-22T15:24:07.840Z,4185.00
2018-09-22T15:25:39.731Z,4038.75
2018-09-22T15:27:11.317Z,3993.75
2018-09-22T15:28:42.802Z,3892.50
2018-09-22T15:33:17.369Z,4185.00
2018-09-22T15:36:21.266Z,4224.38
2018-09-22T15:37:52.170Z,4331.25
2018-09-22T15:39:23.921Z,4353.75
2018-09-22T15:40:56.471Z,4213.13
2018-09-22T15:42:27.199Z,4151.25
2018-09-22T15:43:58.805Z,4230.00
2018-09-22T15:45:30.262Z,4207.50
2018-09-22T15:47:01.675Z,4033.13
2018-09-22T15:48:33.872Z,4353.75
2018-09-22T15:50:05.142Z,4100.63
2018-09-22T15:53:08.015Z,3791.25
2018-09-22T15:54:39.604Z,3926.25
2018-09-22T15:56:11.191Z,4173.75
2018-09-22T15:57:42.781Z,4083.75
2018-09-22T15:59:14.572Z,4038.75
2018-09-22T16:00:46.511Z,4190.63
2018-09-22T16:03:49.142Z,4072.50
2018-09-22T16:05:21.129Z,4134.38
2018-09-22T16:06:52.317Z,4111.88
2018-09-22T16:09:55.700Z,4117.50
2018-09-22T16:11:27.095Z,4016.25
2018-09-22T16:14:30.274Z,4140.00
2018-09-22T16:16:01.925Z,4123.13
2018-09-22T16:19:05.766Z,4359.38
2018-09-22T16:20:37.360Z,4280.63
2018-09-22T16:22:08.223Z,4196.25
2018-09-22T16:23:40.017Z,4224.38
2018-09-22T16:25:11.499Z,4336.88
2018-09-22T16:28:14.581Z,4443.75
2018-09-22T16:31:17.963Z,4095.00
2018-09-22T16:32:49.352Z,1237.50
2018-09-22T16:34:20.942Z,4235.63
2018-09-22T16:35:52.539Z,1209.38
2018-09-22T16:37:24.122Z,1063.13
2018-09-22T16:38:55.712Z,1119.38
2018-09-22T16:40:27.302Z,1231.88
2018-09-22T16:41:58.888Z,1501.88
2018-09-22T16:45:02.163Z,1108.13
2018-09-22T16:46:33.649Z,3723.75
2018-09-22T16:48:05.439Z,3543.75
2018-09-22T16:49:36.929Z,3577.50
2018-09-22T16:51:09.335Z,3296.25
2018-09-22T16:52:39.993Z,3037.50
2018-09-22T16:54:11.578Z,3009.38
2018-09-22T16:55:43.167Z,2851.88
2018-09-22T16:57:14.754Z,1777.50
2018-09-22T16:58:46.339Z,2036.25
2018-09-22T17:01:49.716Z,3532.50
2018-09-22T17:07:56.256Z,1698.75
2018-09-22T17:09:27.445Z,3453.75
2018-09-22T17:10:59.025Z,3245.63
2018-09-22T17:14:02.196Z,3240.00
2018-09-22T17:17:05.370Z,2958.75
2018-09-22T17:21:40.132Z,3155.63
2018-09-22T17:23:11.920Z,3060.00
2018-09-22T17:26:14.892Z,2902.50
2018-09-22T17:27:46.782Z,3026.25
2018-09-22T17:29:18.066Z,2801.25
2018-09-22T17:30:49.653Z,2992.50
2018-09-22T17:32:21.242Z,3110.63
2018-09-22T17:33:52.830Z,2874.38
2018-09-22T17:35:24.724Z,2587.50
2018-09-22T17:36:56.004Z,2615.63
2018-09-22T17:40:00.189Z,2767.50
2018-09-22T17:41:31.070Z,2604.38
2018-09-22T17:44:34.144Z,2761.88
2018-09-22T17:46:05.858Z,2733.75
2018-09-22T17:47:37.639Z,2756.25
2018-09-22T17:49:09.223Z,2531.25
2018-09-22T17:50:40.289Z,2632.50
2018-09-22T17:52:12.435Z,2351.25
2018-09-22T17:53:43.464Z,2542.50
2018-09-22T17:55:15.051Z,2497.50
2018-09-22T17:58:18.427Z,2722.50
2018-09-22T18:01:21.605Z,2463.75
2018-09-22T18:02:52.985Z,2548.13
2018-09-22T18:04:24.703Z,2576.25
2018-09-22T18:05:56.163Z,2581.88
2018-09-22T18:07:27.749Z,2660.63
2018-09-22T18:08:59.329Z,2570.63
2018-09-22T18:10:30.916Z,2660.63
2018-09-22T18:13:34.086Z,2115.00
2018-09-22T18:15:05.673Z,2593.13
2018-09-22T18:16:37.567Z,2745.00
2018-09-22T18:18:08.843Z,2790.00
2018-09-22T18:19:40.561Z,2711.25
2018-09-22T18:21:12.013Z,2716.88
2018-09-22T18:24:15.288Z,2565.00
2018-09-22T18:25:46.770Z,2649.38
2018-09-22T18:27:18.353Z,2536.88
2018-09-22T18:28:49.939Z,2559.38
2018-09-22T18:30:21.524Z,2514.38
2018-09-22T18:33:24.691Z,2418.75
2018-09-22T18:36:27.861Z,2418.75
2018-09-22T18:37:59.445Z,2390.63
2018-09-22T18:39:31.234Z,2435.63
2018-09-22T18:41:02.616Z,2396.25
2018-09-22T18:42:34.306Z,2295.00
2018-09-22T18:44:05.782Z,2328.75
2018-09-22T18:45:37.367Z,2216.25
2018-09-22T18:47:08.951Z,2109.38
2018-09-22T18:48:40.536Z,2216.25
2018-09-22T18:50:12.119Z,2098.13
2018-09-22T18:53:15.495Z,1985.63
2018-09-22T18:54:46.869Z,1940.63
2018-09-22T18:56:18.454Z,1980.00
2018-09-22T18:57:50.037Z,1929.38
2018-09-22T18:59:21.621Z,1906.88
2018-09-22T19:00:54.127Z,1788.75
2018-09-22T19:02:25.095Z,1884.38
2018-09-22T19:03:56.371Z,1856.25
2018-09-22T19:05:27.955Z,1771.88
2018-09-22T19:06:59.539Z,1732.50
2018-09-22T19:08:31.121Z,1726.88
2018-09-22T19:11:34.291Z,1563.75
2018-09-22T19:13:06.897Z,1541.25
2018-09-22T19:14:37.458Z,1603.13
2018-09-22T19:16:09.239Z,1473.75
2018-09-22T19:17:40.923Z,1434.38
2018-09-22T19:19:12.327Z,1479.38
2018-09-22T19:20:43.786Z,1507.50
2018-09-22T19:22:15.367Z,1524.38
2018-09-22T19:23:47.456Z,1389.38
2018-09-22T19:25:18.600Z,1333.13
2018-09-22T19:26:50.421Z,1389.38
2018-09-22T19:28:21.696Z,1451.25
2018-09-22T19:29:53.482Z,1344.38
2018-09-22T19:31:24.863Z,1271.25
2018-09-22T19:32:56.447Z,1181.25
2018-09-22T19:34:28.228Z,1237.50
2018-09-22T19:35:59.609Z,1209.38
2018-09-22T19:37:31.893Z,1468.13
2018-09-22T19:40:34.353Z,1181.25
2018-09-22T19:43:38.137Z,753.75
2018-09-22T19:45:09.097Z,753.75
2018-09-22T19:46:40.676Z,781.88
2018-09-22T19:48:12.257Z,736.88
2018-09-22T19:49:44.042Z,821.25
2018-09-22T19:51:15.422Z,821.25
2018-09-22T19:52:47.002Z,945.00
2018-09-22T19:54:18.583Z,1012.50
2018-09-22T20:00:25.208Z,1141.88
2018-09-22T20:01:56.485Z,1085.63
2018-09-22T20:03:28.067Z,1057.50
2018-09-22T20:06:31.228Z,1001.25
2018-09-22T20:08:02.807Z,973.13
2018-09-22T20:09:34.387Z,916.88
2018-09-22T20:11:05.967Z,883.13
2018-09-22T20:14:09.530Z,849.38
2018-09-22T20:15:40.706Z,815.63
2018-09-22T20:17:12.307Z,793.13
2018-09-22T20:18:44.170Z,759.38
2018-09-22T20:20:15.849Z,742.50
2018-09-22T20:21:47.023Z,703.13
2018-09-22T20:23:18.601Z,658.13
2018-09-22T20:24:50.383Z,613.13
2018-09-22T20:26:21.962Z,585.00
2018-09-22T20:29:24.917Z,517.50
2018-09-22T20:30:56.698Z,478.13
2018-09-22T20:32:28.074Z,466.88
2018-09-22T20:33:59.653Z,438.75
2018-09-22T20:35:31.234Z,410.63
2018-09-22T20:38:34.487Z,354.38
2018-09-22T20:40:05.967Z,343.13
2018-09-22T20:41:37.847Z,253.13
2018-09-22T20:43:09.123Z,146.25
2018-09-22T20:46:12.275Z,118.13
2018-09-22T20:49:15.429Z,95.63
2018-09-22T20:50:47.007Z,84.38
2018-09-22T20:52:18.583Z,78.75
2018-09-22T20:53:50.214Z,67.50
2018-09-22T20:55:21.737Z,56.25
2018-09-22T20:56:53.514Z,50.63
2018-09-22T20:58:25.025Z,45.00
2018-09-22T20:59:56.464Z,33.75
2018-09-22T21:01:28.042Z,28.13
2018-09-22T21:02:59.616Z,22.50
2018-09-22T21:04:31.394Z,16.88
2018-09-22T21:06:02.770Z,16.88
2018-09-22T21:07:34.341Z,11.25
2018-09-22T21:09:05.934Z,11.25
2018-09-22T21:10:37.492Z,5.63
2018-09-22T21:12:09.065Z,5.63
2018-09-22T21:13:40.641Z,0.00
2018-09-22T21:15:13.124Z,0.00
2018-09-22T21:16:44.039Z,0.00
2018-09-22T21:18:15.380Z,0.00
2018-09-22T21:19:46.939Z,0.00
2018-09-22T21:21:18.512Z,0.00
2018-09-22T21:22:50.086Z,0.00
2018-09-22T21:24:21.667Z,0.00
2018-09-22T21:25:53.235Z,0.00
2018-09-22T21:27:24.809Z,0.00
2018-09-22T21:28:56.387Z,0.00
2018-09-22T21:30:27.957Z,0.00
2018-09-22T21:31:59.533Z,0.00
2018-09-22T21:33:31.105Z,0.00
2018-09-22T21:35:02.780Z,0.00
2018-09-22T21:36:34.252Z,0.00
2018-09-22T21:38:05.828Z,0.00
2018-09-22T21:39:37.407Z,0.00
2018-09-22T21:41:08.979Z,0.00
2018-09-22T21:42:40.548Z,0.00
2018-09-22T21:44:12.121Z,0.00
2018-09-22T21:45:44.024Z,0.00
2018-09-22T21:47:15.466Z,0.00
2018-09-22T21:48:46.843Z,0.00
2018-09-22T21:50:18.419Z,0.00
2018-09-22T21:51:49.990Z,0.00
2018-09-22T21:53:21.763Z,0.00
2018-09-22T21:54:53.456Z,0.00
2018-09-22T21:56:24.709Z,0.00